Terminal Aerodrome Forecast
Issued by NWS North Platte, NE

Home | Current Version | Previous Version | Text Only | Print | Product List | Glossary On
Versions: 1 2 3 4 5 6 7 8 9 10 11 12 13
019
FTUS43 KLBF 080520
TAFVTN
TAF
KVTN 080520Z 0806/0906 32010KT P6SM OVC110
     FM081200 32011G17KT P6SM SCT200
     FM081800 32016G24KT P6SM SCT200=

USA.gov is the U.S. government's official web portal to all federal, state and local government web resources and services.